createdAt,value
2023-04-10T00:02:09.156Z,88.03
2023-04-10T00:04:32.904Z,79.13
2023-04-10T00:06:56.491Z,65.33
2023-04-10T00:09:20.145Z,80.90
2023-04-10T00:11:45.402Z,73.60
2023-04-10T00:14:09.067Z,78.37
2023-04-10T00:16:32.649Z,67.60
2023-04-10T00:18:56.316Z,86.73
2023-04-10T00:21:19.896Z,80.27
2023-04-10T00:23:43.524Z,84.30
2023-04-10T00:26:07.490Z,71.83
2023-04-10T00:28:32.465Z,87.70
2023-04-10T00:30:56.087Z,68.27
2023-04-10T00:33:19.668Z,67.00
2023-04-10T00:35:43.251Z,66.43
2023-04-10T00:38:07.081Z,66.07
2023-04-10T00:40:30.737Z,70.30
2023-04-10T00:42:54.514Z,72.10
2023-04-10T00:45:19.624Z,76.20
2023-04-10T00:47:43.304Z,78.80
2023-04-10T00:50:08.202Z,83.07
2023-04-10T00:52:32.056Z,84.70
2023-04-10T00:54:55.669Z,79.97
2023-04-10T00:57:19.440Z,86.77
2023-04-10T00:59:43.128Z,86.17
2023-04-10T01:02:08.362Z,75.00
2023-04-10T01:04:33.034Z,72.00
2023-04-10T01:07:01.261Z,75.20
2023-04-10T01:09:43.189Z,87.90
2023-04-10T01:12:19.505Z,75.70
2023-04-10T01:14:52.172Z,75.83
2023-04-10T01:17:24.152Z,70.70
2023-04-10T01:20:04.194Z,80.00
2023-04-10T01:22:30.727Z,74.67
2023-04-10T01:25:28.557Z,72.07
2023-04-10T01:28:08.743Z,83.63
2023-04-10T01:30:36.722Z,85.03
2023-04-10T01:33:02.003Z,76.43
2023-04-10T01:35:27.137Z,75.67
2023-04-10T01:37:54.681Z,80.23
2023-04-10T01:40:20.797Z,81.93
2023-04-10T01:42:50.565Z,88.80
2023-04-10T01:45:20.361Z,71.93
2023-04-10T01:47:48.719Z,70.27
2023-04-10T01:50:13.620Z,73.17
2023-04-10T01:52:37.577Z,81.07
2023-04-10T01:55:11.605Z,67.57
2023-04-10T01:57:42.170Z,72.40
2023-04-10T02:00:07.306Z,69.80
2023-04-10T02:02:38.588Z,74.93
2023-04-10T02:05:04.336Z,77.37
2023-04-10T02:07:38.306Z,74.07
2023-04-10T02:10:10.947Z,78.80
2023-04-10T02:12:42.499Z,78.20
2023-04-10T02:15:08.743Z,69.47
2023-04-10T02:17:34.847Z,85.90
2023-04-10T02:20:00.856Z,83.17
2023-04-10T02:22:27.100Z,82.93
2023-04-10T02:24:51.222Z,78.20
2023-04-10T02:27:14.775Z,70.70
2023-04-10T02:29:38.736Z,65.20
2023-04-10T02:32:03.977Z,70.53
2023-04-10T02:34:27.607Z,86.77
2023-04-10T02:36:51.242Z,85.17
2023-04-10T02:39:17.132Z,79.67
2023-04-10T02:41:47.568Z,72.37
2023-04-10T02:44:11.490Z,71.43
2023-04-10T02:46:35.067Z,79.33
2023-04-10T02:48:58.992Z,83.83
2023-04-10T02:51:22.718Z,87.87
2023-04-10T02:53:46.901Z,78.93
2023-04-10T02:56:21.679Z,80.33
2023-04-10T02:58:46.365Z,79.90
2023-04-10T03:01:10.927Z,79.47
2023-04-10T03:03:42.207Z,74.20
2023-04-10T03:06:08.050Z,77.90
2023-04-10T03:08:32.051Z,72.20
2023-04-10T03:10:55.650Z,74.50
2023-04-10T03:13:20.786Z,77.50
2023-04-10T03:15:44.570Z,76.77
2023-04-10T03:18:09.232Z,81.27
2023-04-10T03:20:33.540Z,70.27
2023-04-10T03:22:57.083Z,71.73
2023-04-10T03:25:23.370Z,78.93
2023-04-10T03:27:48.312Z,63.67
2023-04-10T03:30:13.912Z,73.60
2023-04-10T03:32:39.124Z,78.53
2023-04-10T03:35:03.996Z,67.17
2023-04-10T03:37:28.494Z,73.60
2023-04-10T03:39:52.058Z,78.10
2023-04-10T03:42:15.640Z,83.47
2023-04-10T03:44:39.466Z,76.23
2023-04-10T03:47:06.309Z,60.63
2023-04-10T03:49:29.989Z,74.70
2023-04-10T03:52:00.159Z,63.47
2023-04-10T03:54:25.099Z,78.17
2023-04-10T03:56:48.646Z,76.03
2023-04-10T03:59:12.265Z,72.57
2023-04-10T04:01:37.835Z,77.10
2023-04-10T04:04:07.591Z,71.90
2023-04-10T04:07:00.679Z,64.70
2023-04-10T04:09:31.136Z,57.53
2023-04-10T04:12:24.226Z,68.20
2023-04-10T04:15:14.004Z,57.07
2023-04-10T04:17:51.329Z,59.63
2023-04-10T04:20:37.803Z,61.03
2023-04-10T04:23:17.723Z,66.77
2023-04-10T04:25:59.783Z,64.03
2023-04-10T04:28:47.345Z,55.67
2023-04-10T04:31:11.213Z,58.97
2023-04-10T04:34:00.597Z,62.90
2023-04-10T04:36:45.672Z,63.03
2023-04-10T04:39:09.275Z,59.40
2023-04-10T04:42:01.404Z,62.80
2023-04-10T04:44:43.965Z,56.37
2023-04-10T04:47:39.815Z,56.90
2023-04-10T04:50:22.149Z,56.97
2023-04-10T04:52:47.178Z,56.17
2023-04-10T04:55:29.273Z,61.67
2023-04-10T04:57:57.484Z,66.03
2023-04-10T05:00:32.709Z,50.30
2023-04-10T05:03:03.535Z,52.93
2023-04-10T05:05:34.639Z,59.10
2023-04-10T05:08:22.734Z,57.67
2023-04-10T05:11:06.827Z,60.87
2023-04-10T05:14:09.094Z,56.60
2023-04-10T05:16:41.925Z,52.93
2023-04-10T05:19:19.600Z,55.33
2023-04-10T05:22:05.723Z,61.03
2023-04-10T05:24:50.503Z,55.13
2023-04-10T05:27:26.636Z,68.53
2023-04-10T05:30:22.189Z,57.77
2023-04-10T05:32:51.435Z,71.70
2023-04-10T05:35:36.870Z,65.10
2023-04-10T05:38:18.962Z,67.17
2023-04-10T05:40:54.161Z,64.57
2023-04-10T05:43:34.779Z,63.37
2023-04-10T05:46:08.397Z,66.27
2023-04-10T05:48:44.420Z,62.77
2023-04-10T05:51:33.512Z,57.07
2023-04-10T05:54:35.948Z,55.50
2023-04-10T05:57:17.346Z,57.30
2023-04-10T06:00:01.463Z,57.90
2023-04-10T06:02:37.721Z,54.00
2023-04-10T06:05:04.212Z,53.20
2023-04-10T06:07:30.324Z,50.43
2023-04-10T06:09:54.148Z,52.63
2023-04-10T06:12:20.069Z,46.00
2023-04-10T06:14:44.442Z,42.00
2023-04-10T06:17:08.728Z,39.53
2023-04-10T06:19:32.657Z,38.33
2023-04-10T06:21:56.258Z,43.03
2023-04-10T06:24:19.815Z,40.97
2023-04-10T06:26:43.966Z,38.72
2023-04-10T06:29:09.009Z,37.00
2023-04-10T06:31:35.173Z,37.83
2023-04-10T06:33:59.042Z,36.65
2023-04-10T06:36:23.386Z,40.00
2023-04-10T06:38:55.003Z,37.72
2023-04-10T06:41:19.970Z,35.72
2023-04-10T06:43:43.466Z,40.03
2023-04-10T06:46:08.792Z,31.65
2023-04-10T06:48:32.906Z,33.03
2023-04-10T06:50:56.578Z,33.03
2023-04-10T06:53:20.119Z,31.40
2023-04-10T06:55:43.803Z,34.88
2023-04-10T06:58:07.309Z,33.33
2023-04-10T07:00:31.771Z,34.25
2023-04-10T07:02:56.720Z,35.97
2023-04-10T07:05:20.534Z,34.50
2023-04-10T07:07:44.273Z,33.67
2023-04-10T07:10:09.712Z,31.98
2023-04-10T07:12:33.119Z,32.15
2023-04-10T07:14:56.695Z,34.25
2023-04-10T07:17:20.277Z,32.00
2023-04-10T07:19:45.308Z,34.60
2023-04-10T07:22:08.818Z,35.42
2023-04-10T07:24:32.882Z,32.17
2023-04-10T07:26:57.256Z,31.17
2023-04-10T07:29:21.534Z,36.22
2023-04-10T07:31:45.363Z,34.95
2023-04-10T07:34:09.195Z,34.85
2023-04-10T07:36:34.116Z,34.40
2023-04-10T07:38:57.771Z,36.25
2023-04-10T07:41:22.295Z,33.35
2023-04-10T07:43:46.080Z,29.00
2023-04-10T07:46:09.681Z,33.85
2023-04-10T07:48:33.304Z,34.97
2023-04-10T07:50:56.883Z,34.35
2023-04-10T07:53:21.928Z,37.95
2023-04-10T07:55:48.763Z,34.35
2023-04-10T07:58:12.511Z,34.95
2023-04-10T08:00:36.294Z,38.22
2023-04-10T08:03:00.096Z,39.03
2023-04-10T08:05:23.964Z,36.50
2023-04-10T08:07:47.748Z,41.28
2023-04-10T08:10:13.422Z,37.47
2023-04-10T08:12:38.384Z,35.63
2023-04-10T08:15:02.006Z,41.67
2023-04-10T08:17:25.608Z,36.78
2023-04-10T08:19:49.143Z,32.75
2023-04-10T08:22:12.758Z,37.42
2023-04-10T08:24:36.270Z,37.60
2023-04-10T08:27:02.246Z,37.30
2023-04-10T08:29:25.809Z,37.03
2023-04-10T08:31:49.770Z,35.83
2023-04-10T08:34:13.281Z,34.20
2023-04-10T08:36:36.942Z,34.15
2023-04-10T08:39:00.791Z,35.13
2023-04-10T08:41:24.480Z,34.92
2023-04-10T08:43:49.909Z,34.95
2023-04-10T08:46:14.413Z,33.50
2023-04-10T08:48:44.569Z,32.70
2023-04-10T08:51:15.561Z,32.85
2023-04-10T08:53:45.921Z,33.53
2023-04-10T08:56:13.800Z,36.20
2023-04-10T08:58:37.620Z,34.08
2023-04-10T09:01:03.314Z,32.42
2023-04-10T09:03:28.387Z,30.92
2023-04-10T09:05:51.994Z,28.88
2023-04-10T09:08:16.767Z,30.20
2023-04-10T09:10:40.394Z,28.67
2023-04-10T09:13:04.043Z,27.15
2023-04-10T09:15:27.636Z,27.35
2023-04-10T09:18:00.815Z,26.02
2023-04-10T09:20:26.851Z,28.50
2023-04-10T09:22:50.445Z,29.20
2023-04-10T09:25:32.428Z,34.97
2023-04-10T09:28:03.017Z,31.13
2023-04-10T09:30:36.838Z,33.83
2023-04-10T09:33:03.397Z,29.25
2023-04-10T09:35:38.062Z,29.65
2023-04-10T09:38:01.803Z,32.65
2023-04-10T09:40:27.069Z,27.73
2023-04-10T09:42:50.733Z,27.80
2023-04-10T09:45:14.307Z,26.25
2023-04-10T09:47:38.035Z,27.48
2023-04-10T09:50:03.174Z,24.05
2023-04-10T09:52:29.012Z,28.30
2023-04-10T09:54:52.664Z,23.48
2023-04-10T09:57:19.475Z,20.75
2023-04-10T09:59:46.416Z,22.13
2023-04-10T10:02:10.654Z,26.10
2023-04-10T10:04:36.148Z,28.40
2023-04-10T10:07:02.072Z,25.27
2023-04-10T10:09:27.139Z,26.92
2023-04-10T10:11:53.388Z,25.15
2023-04-10T10:14:20.260Z,25.73
2023-04-10T10:16:48.636Z,24.85
2023-04-10T10:19:20.584Z,22.42
2023-04-10T10:21:46.342Z,22.38
2023-04-10T10:24:13.378Z,25.02
2023-04-10T10:26:39.834Z,22.55
2023-04-10T10:29:06.693Z,24.17
2023-04-10T10:31:33.404Z,20.48
2023-04-10T10:33:57.362Z,23.45
2023-04-10T10:36:21.875Z,19.95
2023-04-10T10:38:55.861Z,19.23
2023-04-10T10:41:31.752Z,23.70
2023-04-10T10:44:03.370Z,18.52
2023-04-10T10:46:43.981Z,20.83
2023-04-10T10:49:07.591Z,20.23
2023-04-10T10:51:48.609Z,18.58
2023-04-10T10:54:31.337Z,19.35
2023-04-10T10:56:56.505Z,22.52
2023-04-10T10:59:20.007Z,18.48
2023-04-10T11:02:18.142Z,20.45
2023-04-10T11:04:46.382Z,19.33
2023-04-10T11:07:09.900Z,22.02
2023-04-10T11:09:51.967Z,20.73
2023-04-10T11:12:17.733Z,21.48
2023-04-10T11:14:42.530Z,19.63
2023-04-10T11:17:06.257Z,20.20
2023-04-10T11:19:29.880Z,21.02
2023-04-10T11:22:10.619Z,18.27
2023-04-10T11:25:00.345Z,17.17
2023-04-10T11:27:55.965Z,19.85
2023-04-10T11:30:41.215Z,22.23
2023-04-10T11:33:06.759Z,18.63
2023-04-10T11:35:32.512Z,23.05
2023-04-10T11:38:15.070Z,16.67
2023-04-10T11:40:54.695Z,20.35
2023-04-10T11:43:19.774Z,19.15
2023-04-10T11:45:43.312Z,17.15
2023-04-10T11:48:07.838Z,14.73
2023-04-10T11:50:36.048Z,16.60
2023-04-10T11:52:59.715Z,17.02
2023-04-10T11:55:39.249Z,17.65
2023-04-10T11:58:03.057Z,21.27
2023-04-10T12:00:27.982Z,13.20
2023-04-10T12:02:54.914Z,15.43
2023-04-10T12:05:18.938Z,12.60
2023-04-10T12:07:44.459Z,14.98
2023-04-10T12:10:10.451Z,14.68
2023-04-10T12:12:37.272Z,13.57
2023-04-10T12:15:00.883Z,12.18
2023-04-10T12:17:25.976Z,13.77
2023-04-10T12:19:50.343Z,11.20
2023-04-10T12:22:14.457Z,13.45
2023-04-10T12:24:46.421Z,15.95
2023-04-10T12:27:10.690Z,13.90
2023-04-10T12:29:34.284Z,13.43
2023-04-10T12:31:58.194Z,13.68
2023-04-10T12:34:23.127Z,13.05
2023-04-10T12:36:54.269Z,11.38
2023-04-10T12:39:25.606Z,13.45
2023-04-10T12:41:49.218Z,13.80
2023-04-10T12:44:14.917Z,16.42
2023-04-10T12:46:39.081Z,14.57
2023-04-10T12:49:12.489Z,14.70
2023-04-10T12:51:49.781Z,13.32
2023-04-10T12:54:13.767Z,15.27
2023-04-10T12:56:44.730Z,12.93
2023-04-10T12:59:08.526Z,14.88
2023-04-10T13:01:32.152Z,13.50
2023-04-10T13:03:55.788Z,12.85
2023-04-10T13:06:19.479Z,11.73
2023-04-10T13:08:44.422Z,11.10
2023-04-10T13:11:08.483Z,10.93
2023-04-10T13:13:32.885Z,11.38
2023-04-10T13:15:56.694Z,12.40
2023-04-10T13:18:20.271Z,12.15
2023-04-10T13:20:43.897Z,13.57
2023-04-10T13:23:07.639Z,12.90
2023-04-10T13:25:35.627Z,12.90
2023-04-10T13:27:59.290Z,16.40
2023-04-10T13:30:22.904Z,12.43
2023-04-10T13:32:46.507Z,12.18
2023-04-10T13:35:10.763Z,13.35
2023-04-10T13:37:34.423Z,13.73
2023-04-10T13:39:57.921Z,13.65
2023-04-10T13:42:22.887Z,13.57
2023-04-10T13:44:46.608Z,13.60
2023-04-10T13:47:10.405Z,15.00
2023-04-10T13:49:34.069Z,13.55
2023-04-10T13:51:58.489Z,13.10
2023-04-10T13:54:22.044Z,16.58
2023-04-10T13:56:46.504Z,11.88
2023-04-10T13:59:11.587Z,14.07
2023-04-10T14:01:35.240Z,13.27
2023-04-10T14:03:58.866Z,11.65
2023-04-10T14:06:22.538Z,12.45
2023-04-10T14:08:46.061Z,14.02
2023-04-10T14:11:09.693Z,12.13
2023-04-10T14:13:33.233Z,11.35
2023-04-10T14:15:58.244Z,12.65
2023-04-10T14:18:21.777Z,12.02
2023-04-10T14:20:45.470Z,12.18
2023-04-10T14:23:09.045Z,11.60
2023-04-10T14:25:32.677Z,13.52
2023-04-10T14:27:56.465Z,12.55
2023-04-10T14:30:20.211Z,10.43
2023-04-10T14:32:45.411Z,9.38
2023-04-10T14:35:10.203Z,10.05
2023-04-10T14:37:33.800Z,10.70
2023-04-10T14:39:57.499Z,11.68
2023-04-10T14:42:20.990Z,11.38
2023-04-10T14:44:44.951Z,11.77
2023-04-10T14:47:08.482Z,12.20
2023-04-10T14:49:33.525Z,11.60
2023-04-10T14:51:57.080Z,13.23
2023-04-10T14:54:23.623Z,9.90
2023-04-10T14:56:47.194Z,9.65
2023-04-10T14:59:11.640Z,11.32
2023-04-10T15:01:35.937Z,12.07
2023-04-10T15:03:59.698Z,12.23
2023-04-10T15:06:25.127Z,9.70
2023-04-10T15:08:48.922Z,11.45
2023-04-10T15:11:12.469Z,13.50
2023-04-10T15:13:36.098Z,12.48
2023-04-10T15:15:59.896Z,12.25
2023-04-10T15:18:25.505Z,11.10
2023-04-10T15:20:49.061Z,12.38
2023-04-10T15:23:14.016Z,10.57
2023-04-10T15:25:37.605Z,11.27
2023-04-10T15:28:02.093Z,10.65
2023-04-10T15:30:25.888Z,11.00
2023-04-10T15:32:49.503Z,15.35
2023-04-10T15:35:13.109Z,14.27
2023-04-10T15:37:37.559Z,14.95
2023-04-10T15:40:04.458Z,13.85
2023-04-10T15:42:28.116Z,11.80
2023-04-10T15:44:51.655Z,12.73
2023-04-10T15:47:15.416Z,12.43
2023-04-10T15:49:39.091Z,13.02
2023-04-10T15:52:02.753Z,13.57
2023-04-10T15:54:26.324Z,20.20
2023-04-10T15:56:51.312Z,14.00
2023-04-10T15:59:14.984Z,13.52
2023-04-10T16:01:38.610Z,13.30
2023-04-10T16:04:02.602Z,12.57
2023-04-10T16:06:26.981Z,12.52
2023-04-10T16:08:53.366Z,12.15
2023-04-10T16:11:16.968Z,11.63
2023-04-10T16:13:44.389Z,10.73
2023-04-10T16:16:09.315Z,11.50
2023-04-10T16:18:32.929Z,11.70
2023-04-10T16:20:56.555Z,12.07
2023-04-10T16:23:20.100Z,11.43
2023-04-10T16:25:43.756Z,11.70
2023-04-10T16:28:08.163Z,12.73
2023-04-10T16:30:33.287Z,10.48
2023-04-10T16:32:56.928Z,11.15
2023-04-10T16:35:22.375Z,12.45
2023-04-10T16:37:46.099Z,12.60
2023-04-10T16:40:12.497Z,10.93
2023-04-10T16:42:36.029Z,11.13
2023-04-10T16:45:02.132Z,12.80
2023-04-10T16:47:27.191Z,10.80
2023-04-10T16:49:50.854Z,10.38
2023-04-10T16:52:14.628Z,10.45
2023-04-10T16:54:38.620Z,11.20
2023-04-10T16:57:02.591Z,10.88
2023-04-10T16:59:26.309Z,11.75
2023-04-10T17:01:49.961Z,11.63
2023-04-10T17:04:16.745Z,10.30
2023-04-10T17:06:40.780Z,11.27
2023-04-10T17:09:04.424Z,11.68
2023-04-10T17:11:28.050Z,12.57
2023-04-10T17:13:51.713Z,11.15
2023-04-10T17:16:15.904Z,11.68
2023-04-10T17:18:39.500Z,13.32
2023-04-10T17:21:04.744Z,13.30
2023-04-10T17:23:28.402Z,11.80
2023-04-10T17:25:52.002Z,10.48
2023-04-10T17:28:16.871Z,11.73
2023-04-10T17:30:40.900Z,10.77
2023-04-10T17:33:04.844Z,11.93
2023-04-10T17:35:28.508Z,11.43
2023-04-10T17:37:53.894Z,11.43
2023-04-10T17:40:17.522Z,12.77
2023-04-10T17:42:41.138Z,12.38
2023-04-10T17:45:05.221Z,11.57
2023-04-10T17:47:28.905Z,11.73
2023-04-10T17:49:52.474Z,10.57
2023-04-10T17:52:16.088Z,11.93
2023-04-10T17:54:41.282Z,15.45
2023-04-10T17:57:06.475Z,11.85
2023-04-10T17:59:32.001Z,11.85
2023-04-10T18:01:55.639Z,12.68
2023-04-10T18:04:19.252Z,11.85
2023-04-10T18:06:42.944Z,14.40
2023-04-10T18:09:06.442Z,16.48
2023-04-10T18:11:31.428Z,13.95
2023-04-10T18:13:54.970Z,13.82
2023-04-10T18:16:18.728Z,14.25
2023-04-10T18:18:42.614Z,13.32
2023-04-10T18:21:08.086Z,14.30
2023-04-10T18:23:33.109Z,12.52
2023-04-10T18:25:57.628Z,13.13
2023-04-10T18:28:22.877Z,14.93
2023-04-10T18:30:46.461Z,13.70
2023-04-10T18:33:11.236Z,12.52
2023-04-10T18:35:35.271Z,12.77
2023-04-10T18:37:58.837Z,13.65
2023-04-10T18:40:24.040Z,13.45
2023-04-10T18:42:47.605Z,12.38
2023-04-10T18:45:14.108Z,15.68
2023-04-10T18:47:37.704Z,15.95
2023-04-10T18:50:01.372Z,15.02
2023-04-10T18:52:24.866Z,12.93
2023-04-10T18:54:48.504Z,14.73
2023-04-10T18:57:12.871Z,14.35
2023-04-10T18:59:38.944Z,15.52
2023-04-10T19:02:04.378Z,12.93
2023-04-10T19:04:28.232Z,14.63
2023-04-10T19:06:51.970Z,14.82
2023-04-10T19:09:15.985Z,15.55
2023-04-10T19:11:39.846Z,14.85
2023-04-10T19:14:03.496Z,14.02
2023-04-10T19:16:27.290Z,12.80
2023-04-10T19:18:54.739Z,16.33
2023-04-10T19:21:18.387Z,12.05
2023-04-10T19:23:42.238Z,12.25
2023-04-10T19:26:06.126Z,13.60
2023-04-10T19:28:30.565Z,13.57
2023-04-10T19:30:54.138Z,12.60
2023-04-10T19:33:18.183Z,12.88
2023-04-10T19:35:43.146Z,13.32
2023-04-10T19:38:06.795Z,13.55
2023-04-10T19:40:31.924Z,14.48
2023-04-10T19:42:55.990Z,14.23
2023-04-10T19:45:22.160Z,13.40
2023-04-10T19:47:45.885Z,11.18
2023-04-10T19:50:10.225Z,12.38
2023-04-10T19:52:35.335Z,10.48
2023-04-10T19:54:58.880Z,11.50
2023-04-10T19:57:22.504Z,9.38
2023-04-10T19:59:46.039Z,14.25
2023-04-10T20:02:10.427Z,11.88
2023-04-10T20:04:34.118Z,10.38
2023-04-10T20:06:57.890Z,12.55
2023-04-10T20:09:23.147Z,10.45
2023-04-10T20:11:46.731Z,12.52
2023-04-10T20:14:10.783Z,11.52
2023-04-10T20:16:34.744Z,12.50
2023-04-10T20:18:58.730Z,12.43
2023-04-10T20:21:22.838Z,13.77
2023-04-10T20:23:46.388Z,9.25
2023-04-10T20:26:12.894Z,10.13
2023-04-10T20:28:36.482Z,10.93
2023-04-10T20:31:00.067Z,13.35
2023-04-10T20:33:24.459Z,11.98
2023-04-10T20:35:48.148Z,10.85
2023-04-10T20:38:11.870Z,11.25
2023-04-10T20:40:35.946Z,12.25
2023-04-10T20:43:01.010Z,10.68
2023-04-10T20:45:24.718Z,11.00
2023-04-10T20:47:48.240Z,10.93
2023-04-10T20:50:13.119Z,12.15
2023-04-10T20:52:36.847Z,12.13
2023-04-10T20:55:00.456Z,12.30
2023-04-10T20:57:24.003Z,13.68
2023-04-10T20:59:48.972Z,10.85
2023-04-10T21:02:13.218Z,11.93
2023-04-10T21:04:36.917Z,11.85
2023-04-10T21:07:00.441Z,14.55
2023-04-10T21:09:24.012Z,14.38
2023-04-10T21:11:47.522Z,10.85
2023-04-10T21:14:11.208Z,15.35
2023-04-10T21:16:41.160Z,10.40
2023-04-10T21:19:04.869Z,11.00
2023-04-10T21:21:29.000Z,10.93
2023-04-10T21:23:52.618Z,10.13
2023-04-10T21:26:16.145Z,11.15
2023-04-10T21:28:39.733Z,11.52
2023-04-10T21:31:03.396Z,10.13
2023-04-10T21:33:28.447Z,11.07
2023-04-10T21:35:52.033Z,10.35
2023-04-10T21:38:15.863Z,11.27
2023-04-10T21:40:39.445Z,11.60
2023-04-10T21:43:03.306Z,11.65
2023-04-10T21:45:26.845Z,10.38
2023-04-10T21:47:50.453Z,12.50
2023-04-10T21:50:15.545Z,13.43
2023-04-10T21:52:39.131Z,11.32
2023-04-10T21:55:03.826Z,10.77
2023-04-10T21:57:28.662Z,13.55
2023-04-10T21:59:52.480Z,14.15
2023-04-10T22:02:16.208Z,13.85
2023-04-10T22:04:48.002Z,12.18
2023-04-10T22:07:19.226Z,13.00
2023-04-10T22:09:42.745Z,12.50
2023-04-10T22:12:07.584Z,12.02
2023-04-10T22:14:31.846Z,13.95
2023-04-10T22:16:56.663Z,12.07
2023-04-10T22:19:20.284Z,10.93
2023-04-10T22:21:43.916Z,10.55
2023-04-10T22:24:09.479Z,12.23
2023-04-10T22:26:33.813Z,12.30
2023-04-10T22:28:59.100Z,12.00
2023-04-10T22:31:22.805Z,14.15
2023-04-10T22:33:46.439Z,12.07
2023-04-10T22:36:11.074Z,12.55
2023-04-10T22:38:34.709Z,11.18
2023-04-10T22:40:59.652Z,11.93
2023-04-10T22:43:23.185Z,14.73
2023-04-10T22:45:46.776Z,12.40
2023-04-10T22:48:10.325Z,12.27
2023-04-10T22:50:33.919Z,12.82
2023-04-10T22:52:57.440Z,13.32
2023-04-10T22:55:21.198Z,14.00
2023-04-10T22:57:49.400Z,14.00
2023-04-10T23:00:14.565Z,12.35
2023-04-10T23:02:38.285Z,14.32
2023-04-10T23:05:02.874Z,13.70
2023-04-10T23:07:27.933Z,13.52
2023-04-10T23:09:51.624Z,14.70
2023-04-10T23:12:15.129Z,12.50
2023-04-10T23:14:40.133Z,14.18
2023-04-10T23:17:03.956Z,13.40
2023-04-10T23:19:27.564Z,10.85
2023-04-10T23:21:53.503Z,13.13
2023-04-10T23:24:17.100Z,13.02
2023-04-10T23:26:40.648Z,14.57
2023-04-10T23:29:04.378Z,15.45
2023-04-10T23:31:29.321Z,12.40
2023-04-10T23:33:52.957Z,12.35
2023-04-10T23:36:16.674Z,13.02
2023-04-10T23:38:40.304Z,14.18
2023-04-10T23:41:04.004Z,12.18
2023-04-10T23:43:27.654Z,13.88
2023-04-10T23:45:51.155Z,13.10
2023-04-10T23:48:16.275Z,12.77
2023-04-10T23:50:39.862Z,14.77
2023-04-10T23:53:04.043Z,9.80
2023-04-10T23:55:27.812Z,10.95
2023-04-10T23:57:51.371Z,14.48
